Domov               UVHVVR             MKGP            O straneh              
ZDRAVSTVENO VARSTVO RASTLIN
  MREŽA AGROMET. POSTAJ
 ► PROGNOSTIČNA OBVESTILA
AGROMETEOROLOŠKI PODATKI -
ARSO
OBVLADOVANJE TVEGANJ ZARADI
NEUGODNIH VREMENSKIH RAZMER
  ► NARAVNE NESREČE
  ► SUŠA/MOČA
  ► NAMAKANJE
  ► ŽLED (gozdarstvo)
KARTOGRAFSKI PRIKAZI
SPLETNE POVEZAVE
PROJEKTI IN PUBLIKACIJE

AGROMETEOROLOŠKA MREŽA: VREMENSKE POSTAJE IN FENOLOŠKA OPAZOVANJA

Pregled podatkov za lokacijo Kozana, meteorološka postaja 863701

Pregled senzorjev na lokaciji

ID Ime Zadnja
vrednost
Datum
zadnje
spremembe
Tip
senzorja
4186 Temperatura 2 m (°C) 14,5 °C 12.12.2017 01:00 50YA
4187 Relativna vlaga 2 m (% RH) 73,18 % RH 12.12.2017 01:00 50YA
4188 Omočenost lista (U) 9 U 12.12.2017 01:00 A730WET
4189 Padavine (mm) 0 mm 12.12.2017 01:00 Rain-O-Matic

Pregled podatkov zadnjih 24 ur

Zap.
št.
Datum in čas Kozana
Omočenost
lista
Padavine Relativna
vlaga
2
m
Temperatura
2
m
0 12.12.2017 01:00 9 0 73,18 14,5
1 12.12.2017 00:30 5 0 72,83 14,55
2 12.12.2017 00:00 0 0,2 71,73 14,68
3 11.12.2017 23:30 0 0 71,99 14,65
4 11.12.2017 23:00 0 0 74,39 14,35
5 11.12.2017 22:30 0 0 76,41 14,06
6 11.12.2017 22:00 1 0 81,07 13,42
7 11.12.2017 21:30 10 0,8 90,94 12,22
8 11.12.2017 21:00 10 1,2 97,51 11,4
9 11.12.2017 20:30 10 1,8 97,65 11,37
10 11.12.2017 20:00 10 0,8 94,08 11,79
11 11.12.2017 19:30 10 1 90,42 12,19
12 11.12.2017 19:00 10 0,8 82,72 13,08
13 11.12.2017 18:30 10 0 77,27 13,68
14 11.12.2017 18:00 10 0 74,92 13,82
15 11.12.2017 17:30 5 0 74,45 13,72
16 11.12.2017 17:00 0 0 75,6 13,35
17 11.12.2017 16:30 10 0,2 76,55 13,23
18 11.12.2017 16:00 10 0,4 79,15 13,08
19 11.12.2017 15:30 10 0,2 80,34 12,95
20 11.12.2017 15:00 10 0,2 85,74 12,48
21 11.12.2017 14:30 10 0 94 11,59
22 11.12.2017 14:00 10 0,4 99,87 10,88
23 11.12.2017 13:30 10 1 100 10,65
24 11.12.2017 13:00 10 1 100 10,56
25 11.12.2017 12:30 10 2,4 100 10,42
26 11.12.2017 12:00 10 2,6 100 10,06
27 11.12.2017 11:30 10 2,2 100 9,55
28 11.12.2017 11:00 9 2,4 100 9,05
29 11.12.2017 10:30 9 2,8 100 8,83
30 11.12.2017 10:00 10 2,8 100 7,98
31 11.12.2017 09:30 9 3,4 100 6,88
32 11.12.2017 09:00 6 2,6 100 6,12
33 11.12.2017 08:30 4 2,6 100 5,69
34 11.12.2017 08:00 3 3,2 100 5,1
35 11.12.2017 07:30 2 2,6 100 4,95
36 11.12.2017 07:00 2 2,8 100 4,57
37 11.12.2017 06:30 3 2 100 4,28
38 11.12.2017 06:00 3 3 100 4,38
39 11.12.2017 05:30 3 4 100 4,32
40 11.12.2017 05:00 3 3 100 4,05
41 11.12.2017 04:30 3 3 100 4,01
42 11.12.2017 04:00 4 2,2 100 4,03
43 11.12.2017 03:30 3 3 100 4,23
44 11.12.2017 03:00 3 2,8 100 4,42
45 11.12.2017 02:30 2 2,6 100 4,46
46 11.12.2017 02:00 3 2,6 99,81 4,18
© 2011 Ministrstvo za kmetijstvo, gozdarstvo in prehrano. Vse pravice pridržane.